sensor_id;sensor_type;location;lat;lon;timestamp;P1;durP1;ratioP1;P2;durP2;ratioP2
14782;SDS011;7483;50.498;12.138;2023-03-01T00:01:35;0.10;;;0.10;;
14782;SDS011;7483;50.498;12.138;2023-03-01T00:04:02;0.10;;;0.10;;
14782;SDS011;7483;50.498;12.138;2023-03-01T00:06:32;0.10;;;0.10;;
14782;SDS011;7483;50.498;12.138;2023-03-01T00:09:00;0.10;;;0.10;;
14782;SDS011;7483;50.498;12.138;2023-03-01T00:11:28;0.10;;;0.10;;
14782;SDS011;7483;50.498;12.138;2023-03-01T00:14:00;0.10;;;0.10;;
14782;SDS011;7483;50.498;12.138;2023-03-01T00:16:31;0.10;;;0.10;;
14782;SDS011;7483;50.498;12.138;2023-03-01T00:19:02;0.10;;;0.10;;
14782;SDS011;7483;50.498;12.138;2023-03-01T00:21:30;0.10;;;0.10;;
14782;SDS011;7483;50.498;12.138;2023-03-01T00:23:59;0.10;;;0.10;;
14782;SDS011;7483;50.498;12.138;2023-03-01T00:26:28;0.20;;;0.20;;
14782;SDS011;7483;50.498;12.138;2023-03-01T00:28:56;0.10;;;0.10;;
14782;SDS011;7483;50.498;12.138;2023-03-01T00:31:26;0.10;;;0.10;;
14782;SDS011;7483;50.498;12.138;2023-03-01T00:33:57;0.17;;;0.17;;
14782;SDS011;7483;50.498;12.138;2023-03-01T00:36:29;0.10;;;0.10;;
14782;SDS011;7483;50.498;12.138;2023-03-01T00:39:02;0.10;;;0.10;;
14782;SDS011;7483;50.498;12.138;2023-03-01T00:41:32;0.10;;;0.10;;
14782;SDS011;7483;50.498;12.138;2023-03-01T00:44:01;0.20;;;0.20;;
14782;SDS011;7483;50.498;12.138;2023-03-01T00:46:29;0.10;;;0.10;;
14782;SDS011;7483;50.498;12.138;2023-03-01T00:48:58;0.20;;;0.20;;
14782;SDS011;7483;50.498;12.138;2023-03-01T00:51:28;0.10;;;0.10;;
14782;SDS011;7483;50.498;12.138;2023-03-01T00:53:58;0.10;;;0.10;;
14782;SDS011;7483;50.498;12.138;2023-03-01T00:56:29;0.20;;;0.20;;
14782;SDS011;7483;50.498;12.138;2023-03-01T00:58:58;0.10;;;0.10;;
14782;SDS011;7483;50.498;12.138;2023-03-01T01:01:28;0.10;;;0.10;;
14782;SDS011;7483;50.498;12.138;2023-03-01T01:03:59;0.10;;;0.10;;
14782;SDS011;7483;50.498;12.138;2023-03-01T01:06:31;0.20;;;0.20;;
14782;SDS011;7483;50.498;12.138;2023-03-01T01:09:03;0.10;;;0.10;;
14782;SDS011;7483;50.498;12.138;2023-03-01T01:11:33;0.10;;;0.10;;
14782;SDS011;7483;50.498;12.138;2023-03-01T01:14:03;0.20;;;0.20;;
14782;SDS011;7483;50.498;12.138;2023-03-01T01:16:31;0.20;;;0.20;;
14782;SDS011;7483;50.498;12.138;2023-03-01T01:19:00;0.10;;;0.10;;
14782;SDS011;7483;50.498;12.138;2023-03-01T01:21:28;0.20;;;0.20;;
14782;SDS011;7483;50.498;12.138;2023-03-01T01:23:56;0.10;;;0.10;;
14782;SDS011;7483;50.498;12.138;2023-03-01T01:26:27;0.20;;;0.20;;
14782;SDS011;7483;50.498;12.138;2023-03-01T01:28:58;0.20;;;0.20;;
14782;SDS011;7483;50.498;12.138;2023-03-01T01:31:27;0.20;;;0.20;;
14782;SDS011;7483;50.498;12.138;2023-03-01T01:33:57;0.20;;;0.20;;
14782;SDS011;7483;50.498;12.138;2023-03-01T01:36:27;0.20;;;0.20;;
14782;SDS011;7483;50.498;12.138;2023-03-01T01:38:56;0.20;;;0.20;;
14782;SDS011;7483;50.498;12.138;2023-03-01T01:41:25;0.20;;;0.20;;
14782;SDS011;7483;50.498;12.138;2023-03-01T01:46:47;0.20;;;0.20;;
14782;SDS011;7483;50.498;12.138;2023-03-01T01:49:24;0.20;;;0.20;;
14782;SDS011;7483;50.498;12.138;2023-03-01T01:52:07;0.20;;;0.20;;
14782;SDS011;7483;50.498;12.138;2023-03-01T01:54:40;0.20;;;0.20;;
14782;SDS011;7483;50.498;12.138;2023-03-01T01:57:16;0.20;;;0.20;;
14782;SDS011;7483;50.498;12.138;2023-03-01T01:59:50;0.20;;;0.20;;
14782;SDS011;7483;50.498;12.138;2023-03-01T02:02:21;0.10;;;0.10;;
14782;SDS011;7483;50.498;12.138;2023-03-01T02:04:52;0.20;;;0.20;;
14782;SDS011;7483;50.498;12.138;2023-03-01T02:07:29;0.20;;;0.20;;
14782;SDS011;7483;50.498;12.138;2023-03-01T02:09:58;0.20;;;0.20;;
14782;SDS011;7483;50.498;12.138;2023-03-01T02:12:27;0.20;;;0.20;;
14782;SDS011;7483;50.498;12.138;2023-03-01T02:14:56;0.20;;;0.20;;
14782;SDS011;7483;50.498;12.138;2023-03-01T02:17:24;0.20;;;0.20;;
14782;SDS011;7483;50.498;12.138;2023-03-01T02:19:59;0.20;;;0.20;;
14782;SDS011;7483;50.498;12.138;2023-03-01T02:22:42;0.10;;;0.10;;
14782;SDS011;7483;50.498;12.138;2023-03-01T02:25:21;0.10;;;0.10;;
14782;SDS011;7483;50.498;12.138;2023-03-01T02:28:00;0.10;;;0.10;;
14782;SDS011;7483;50.498;12.138;2023-03-01T02:30:36;0.20;;;0.20;;
14782;SDS011;7483;50.498;12.138;2023-03-01T02:33:25;0.20;;;0.20;;
14782;SDS011;7483;50.498;12.138;2023-03-01T02:35:53;0.20;;;0.20;;
14782;SDS011;7483;50.498;12.138;2023-03-01T02:38:23;0.20;;;0.20;;
14782;SDS011;7483;50.498;12.138;2023-03-01T02:40:52;0.10;;;0.10;;
14782;SDS011;7483;50.498;12.138;2023-03-01T02:43:22;0.10;;;0.10;;
14782;SDS011;7483;50.498;12.138;2023-03-01T02:46:03;0.20;;;0.20;;
14782;SDS011;7483;50.498;12.138;2023-03-01T02:48:41;0.20;;;0.20;;
14782;SDS011;7483;50.498;12.138;2023-03-01T02:51:18;0.10;;;0.10;;
14782;SDS011;7483;50.498;12.138;2023-03-01T02:54:06;0.17;;;0.17;;
14782;SDS011;7483;50.498;12.138;2023-03-01T02:56:42;0.20;;;0.20;;
14782;SDS011;7483;50.498;12.138;2023-03-01T02:59:18;0.10;;;0.10;;
14782;SDS011;7483;50.498;12.138;2023-03-01T03:01:51;0.10;;;0.10;;
14782;SDS011;7483;50.498;12.138;2023-03-01T03:04:19;0.20;;;0.20;;
14782;SDS011;7483;50.498;12.138;2023-03-01T03:06:49;0.20;;;0.20;;
14782;SDS011;7483;50.498;12.138;2023-03-01T03:09:18;0.20;;;0.20;;
14782;SDS011;7483;50.498;12.138;2023-03-01T03:11:46;0.10;;;0.10;;
14782;SDS011;7483;50.498;12.138;2023-03-01T03:14:15;0.20;;;0.20;;
14782;SDS011;7483;50.498;12.138;2023-03-01T03:16:47;0.10;;;0.10;;
14782;SDS011;7483;50.498;12.138;2023-03-01T03:19:18;0.10;;;0.10;;
14782;SDS011;7483;50.498;12.138;2023-03-01T03:21:47;0.20;;;0.20;;
14782;SDS011;7483;50.498;12.138;2023-03-01T03:24:15;0.20;;;0.20;;
14782;SDS011;7483;50.498;12.138;2023-03-01T03:26:44;0.20;;;0.20;;
14782;SDS011;7483;50.498;12.138;2023-03-01T03:29:12;0.20;;;0.20;;
14782;SDS011;7483;50.498;12.138;2023-03-01T03:31:40;0.15;;;0.15;;
14782;SDS011;7483;50.498;12.138;2023-03-01T03:34:10;0.20;;;0.20;;
14782;SDS011;7483;50.498;12.138;2023-03-01T03:36:44;0.20;;;0.20;;
14782;SDS011;7483;50.498;12.138;2023-03-01T03:39:12;0.20;;;0.20;;
14782;SDS011;7483;50.498;12.138;2023-03-01T03:41:39;0.20;;;0.20;;
14782;SDS011;7483;50.498;12.138;2023-03-01T03:44:07;0.10;;;0.10;;
14782;SDS011;7483;50.498;12.138;2023-03-01T03:46:35;0.20;;;0.20;;
14782;SDS011;7483;50.498;12.138;2023-03-01T03:49:03;0.20;;;0.20;;
14782;SDS011;7483;50.498;12.138;2023-03-01T03:51:32;0.20;;;0.20;;
14782;SDS011;7483;50.498;12.138;2023-03-01T03:54:00;0.30;;;0.30;;
14782;SDS011;7483;50.498;12.138;2023-03-01T03:56:28;0.20;;;0.20;;
14782;SDS011;7483;50.498;12.138;2023-03-01T03:58:57;0.20;;;0.20;;
14782;SDS011;7483;50.498;12.138;2023-03-01T04:01:25;0.10;;;0.10;;
14782;SDS011;7483;50.498;12.138;2023-03-01T04:03:53;0.20;;;0.20;;
14782;SDS011;7483;50.498;12.138;2023-03-01T04:06:21;0.20;;;0.20;;
14782;SDS011;7483;50.498;12.138;2023-03-01T04:08:51;0.20;;;0.20;;
14782;SDS011;7483;50.498;12.138;2023-03-01T04:11:26;0.20;;;0.20;;
14782;SDS011;7483;50.498;12.138;2023-03-01T04:13:55;0.20;;;0.20;;
14782;SDS011;7483;50.498;12.138;2023-03-01T04:16:26;0.20;;;0.20;;
14782;SDS011;7483;50.498;12.138;2023-03-01T04:18:54;0.20;;;0.20;;
14782;SDS011;7483;50.498;12.138;2023-03-01T04:21:25;0.20;;;0.20;;
14782;SDS011;7483;50.498;12.138;2023-03-01T04:23:55;0.30;;;0.30;;
14782;SDS011;7483;50.498;12.138;2023-03-01T04:26:23;0.20;;;0.20;;
14782;SDS011;7483;50.498;12.138;2023-03-01T04:28:51;0.20;;;0.20;;
14782;SDS011;7483;50.498;12.138;2023-03-01T04:31:19;0.20;;;0.20;;
14782;SDS011;7483;50.498;12.138;2023-03-01T04:33:48;0.20;;;0.20;;
14782;SDS011;7483;50.498;12.138;2023-03-01T04:36:19;0.20;;;0.20;;
14782;SDS011;7483;50.498;12.138;2023-03-01T04:38:49;0.20;;;0.20;;
14782;SDS011;7483;50.498;12.138;2023-03-01T04:41:20;0.20;;;0.20;;
14782;SDS011;7483;50.498;12.138;2023-03-01T04:43:49;0.20;;;0.20;;
14782;SDS011;7483;50.498;12.138;2023-03-01T04:46:19;0.20;;;0.20;;
14782;SDS011;7483;50.498;12.138;2023-03-01T04:48:48;0.20;;;0.20;;
14782;SDS011;7483;50.498;12.138;2023-03-01T04:51:16;0.20;;;0.20;;
14782;SDS011;7483;50.498;12.138;2023-03-01T04:53:44;0.30;;;0.30;;
14782;SDS011;7483;50.498;12.138;2023-03-01T04:56:13;0.20;;;0.20;;
14782;SDS011;7483;50.498;12.138;2023-03-01T04:58:45;0.20;;;0.20;;
14782;SDS011;7483;50.498;12.138;2023-03-01T05:01:14;0.20;;;0.20;;
14782;SDS011;7483;50.498;12.138;2023-03-01T05:03:46;0.20;;;0.20;;
14782;SDS011;7483;50.498;12.138;2023-03-01T05:06:16;0.20;;;0.20;;
14782;SDS011;7483;50.498;12.138;2023-03-01T05:08:46;0.20;;;0.20;;
14782;SDS011;7483;50.498;12.138;2023-03-01T05:11:14;0.20;;;0.20;;
14782;SDS011;7483;50.498;12.138;2023-03-01T05:13:43;0.20;;;0.20;;
14782;SDS011;7483;50.498;12.138;2023-03-01T05:16:12;0.20;;;0.20;;
14782;SDS011;7483;50.498;12.138;2023-03-01T05:18:40;0.30;;;0.30;;
14782;SDS011;7483;50.498;12.138;2023-03-01T05:21:09;0.20;;;0.20;;
14782;SDS011;7483;50.498;12.138;2023-03-01T05:23:42;0.20;;;0.20;;
14782;SDS011;7483;50.498;12.138;2023-03-01T05:26:10;0.20;;;0.20;;
14782;SDS011;7483;50.498;12.138;2023-03-01T05:28:53;0.20;;;0.20;;
14782;SDS011;7483;50.498;12.138;2023-03-01T05:31:26;0.20;;;0.20;;
14782;SDS011;7483;50.498;12.138;2023-03-01T05:33:56;0.20;;;0.20;;
14782;SDS011;7483;50.498;12.138;2023-03-01T05:36:24;0.20;;;0.20;;
14782;SDS011;7483;50.498;12.138;2023-03-01T05:38:52;0.20;;;0.20;;
14782;SDS011;7483;50.498;12.138;2023-03-01T05:41:21;0.25;;;0.25;;
14782;SDS011;7483;50.498;12.138;2023-03-01T05:43:49;0.20;;;0.20;;
14782;SDS011;7483;50.498;12.138;2023-03-01T05:46:17;0.22;;;0.22;;
14782;SDS011;7483;50.498;12.138;2023-03-01T05:48:47;0.20;;;0.20;;
14782;SDS011;7483;50.498;12.138;2023-03-01T05:51:15;0.20;;;0.20;;
14782;SDS011;7483;50.498;12.138;2023-03-01T05:53:43;0.20;;;0.20;;
14782;SDS011;7483;50.498;12.138;2023-03-01T05:56:11;0.20;;;0.20;;
14782;SDS011;7483;50.498;12.138;2023-03-01T05:58:39;0.20;;;0.20;;
14782;SDS011;7483;50.498;12.138;2023-03-01T06:01:10;0.20;;;0.20;;
14782;SDS011;7483;50.498;12.138;2023-03-01T06:03:40;0.20;;;0.20;;
14782;SDS011;7483;50.498;12.138;2023-03-01T06:06:09;0.20;;;0.20;;
14782;SDS011;7483;50.498;12.138;2023-03-01T06:08:37;0.20;;;0.20;;
14782;SDS011;7483;50.498;12.138;2023-03-01T06:11:05;0.20;;;0.20;;
14782;SDS011;7483;50.498;12.138;2023-03-01T06:13:34;0.20;;;0.20;;
14782;SDS011;7483;50.498;12.138;2023-03-01T06:16:03;0.20;;;0.20;;
14782;SDS011;7483;50.498;12.138;2023-03-01T06:18:33;0.20;;;0.20;;
14782;SDS011;7483;50.498;12.138;2023-03-01T06:21:01;0.20;;;0.20;;
14782;SDS011;7483;50.498;12.138;2023-03-01T06:23:31;0.20;;;0.20;;
14782;SDS011;7483;50.498;12.138;2023-03-01T06:25:59;0.20;;;0.20;;
14782;SDS011;7483;50.498;12.138;2023-03-01T06:28:27;0.20;;;0.20;;
14782;SDS011;7483;50.498;12.138;2023-03-01T06:30:55;0.20;;;0.20;;
14782;SDS011;7483;50.498;12.138;2023-03-01T06:33:23;0.20;;;0.20;;
14782;SDS011;7483;50.498;12.138;2023-03-01T06:35:51;0.20;;;0.20;;
14782;SDS011;7483;50.498;12.138;2023-03-01T06:38:22;0.20;;;0.20;;
14782;SDS011;7483;50.498;12.138;2023-03-01T06:40:52;0.20;;;0.20;;
14782;SDS011;7483;50.498;12.138;2023-03-01T06:43:22;0.20;;;0.20;;
14782;SDS011;7483;50.498;12.138;2023-03-01T06:45:51;0.20;;;0.20;;
14782;SDS011;7483;50.498;12.138;2023-03-01T06:48:19;0.30;;;0.30;;
14782;SDS011;7483;50.498;12.138;2023-03-01T06:50:47;0.20;;;0.20;;
14782;SDS011;7483;50.498;12.138;2023-03-01T06:53:15;0.20;;;0.20;;
14782;SDS011;7483;50.498;12.138;2023-03-01T06:55:42;0.20;;;0.20;;
14782;SDS011;7483;50.498;12.138;2023-03-01T06:58:12;0.20;;;0.20;;
14782;SDS011;7483;50.498;12.138;2023-03-01T07:00:40;0.20;;;0.20;;
14782;SDS011;7483;50.498;12.138;2023-03-01T07:03:09;0.20;;;0.20;;
14782;SDS011;7483;50.498;12.138;2023-03-01T07:05:37;0.20;;;0.20;;
14782;SDS011;7483;50.498;12.138;2023-03-01T07:08:05;0.20;;;0.20;;
14782;SDS011;7483;50.498;12.138;2023-03-01T07:10:33;0.20;;;0.20;;
14782;SDS011;7483;50.498;12.138;2023-03-01T07:13:01;0.20;;;0.20;;
14782;SDS011;7483;50.498;12.138;2023-03-01T07:15:30;0.20;;;0.20;;
14782;SDS011;7483;50.498;12.138;2023-03-01T07:17:59;0.30;;;0.30;;
14782;SDS011;7483;50.498;12.138;2023-03-01T07:20:26;0.20;;;0.20;;
14782;SDS011;7483;50.498;12.138;2023-03-01T07:22:55;0.30;;;0.30;;
14782;SDS011;7483;50.498;12.138;2023-03-01T07:25:24;0.20;;;0.20;;
14782;SDS011;7483;50.498;12.138;2023-03-01T07:27:52;0.20;;;0.20;;
14782;SDS011;7483;50.498;12.138;2023-03-01T07:30:21;0.20;;;0.20;;
14782;SDS011;7483;50.498;12.138;2023-03-01T07:32:53;0.20;;;0.20;;
14782;SDS011;7483;50.498;12.138;2023-03-01T07:35:21;0.20;;;0.20;;
14782;SDS011;7483;50.498;12.138;2023-03-01T07:37:50;0.20;;;0.20;;
14782;SDS011;7483;50.498;12.138;2023-03-01T07:40:19;0.20;;;0.20;;
14782;SDS011;7483;50.498;12.138;2023-03-01T07:42:47;0.15;;;0.15;;
14782;SDS011;7483;50.498;12.138;2023-03-01T07:45:15;0.20;;;0.20;;
14782;SDS011;7483;50.498;12.138;2023-03-01T07:47:43;0.20;;;0.20;;
14782;SDS011;7483;50.498;12.138;2023-03-01T07:50:12;0.20;;;0.20;;
14782;SDS011;7483;50.498;12.138;2023-03-01T07:52:41;0.20;;;0.20;;
14782;SDS011;7483;50.498;12.138;2023-03-01T07:55:12;0.20;;;0.20;;
14782;SDS011;7483;50.498;12.138;2023-03-01T07:57:40;0.20;;;0.20;;
14782;SDS011;7483;50.498;12.138;2023-03-01T08:00:09;0.20;;;0.20;;
14782;SDS011;7483;50.498;12.138;2023-03-01T08:02:39;0.20;;;0.20;;
14782;SDS011;7483;50.498;12.138;2023-03-01T08:05:08;0.20;;;0.20;;
14782;SDS011;7483;50.498;12.138;2023-03-01T08:07:38;0.20;;;0.20;;
14782;SDS011;7483;50.498;12.138;2023-03-01T08:10:06;0.20;;;0.20;;
14782;SDS011;7483;50.498;12.138;2023-03-01T08:12:35;0.20;;;0.20;;
14782;SDS011;7483;50.498;12.138;2023-03-01T08:15:03;0.20;;;0.20;;
14782;SDS011;7483;50.498;12.138;2023-03-01T08:17:32;0.20;;;0.20;;
14782;SDS011;7483;50.498;12.138;2023-03-01T08:20:00;0.20;;;0.20;;
14782;SDS011;7483;50.498;12.138;2023-03-01T08:22:29;0.20;;;0.20;;
14782;SDS011;7483;50.498;12.138;2023-03-01T08:24:58;0.20;;;0.20;;
14782;SDS011;7483;50.498;12.138;2023-03-01T08:27:26;0.10;;;0.10;;
14782;SDS011;7483;50.498;12.138;2023-03-01T08:29:54;0.10;;;0.10;;
14782;SDS011;7483;50.498;12.138;2023-03-01T08:32:22;0.20;;;0.20;;
14782;SDS011;7483;50.498;12.138;2023-03-01T08:34:50;0.10;;;0.10;;
14782;SDS011;7483;50.498;12.138;2023-03-01T08:37:18;0.17;;;0.17;;
14782;SDS011;7483;50.498;12.138;2023-03-01T08:39:46;0.20;;;0.20;;
14782;SDS011;7483;50.498;12.138;2023-03-01T08:42:16;0.15;;;0.15;;
14782;SDS011;7483;50.498;12.138;2023-03-01T08:44:44;0.20;;;0.20;;
14782;SDS011;7483;50.498;12.138;2023-03-01T08:47:12;0.10;;;0.10;;
14782;SDS011;7483;50.498;12.138;2023-03-01T08:49:40;0.10;;;0.10;;
14782;SDS011;7483;50.498;12.138;2023-03-01T08:52:08;0.10;;;0.10;;
14782;SDS011;7483;50.498;12.138;2023-03-01T08:54:36;0.20;;;0.20;;
14782;SDS011;7483;50.498;12.138;2023-03-01T08:57:04;0.10;;;0.10;;
14782;SDS011;7483;50.498;12.138;2023-03-01T08:59:34;0.10;;;0.10;;
14782;SDS011;7483;50.498;12.138;2023-03-01T09:02:03;0.20;;;0.20;;
14782;SDS011;7483;50.498;12.138;2023-03-01T09:04:31;0.10;;;0.10;;
14782;SDS011;7483;50.498;12.138;2023-03-01T09:06:59;0.10;;;0.10;;
14782;SDS011;7483;50.498;12.138;2023-03-01T09:09:27;0.15;;;0.15;;
14782;SDS011;7483;50.498;12.138;2023-03-01T09:11:55;0.10;;;0.10;;
14782;SDS011;7483;50.498;12.138;2023-03-01T09:14:23;0.10;;;0.10;;
14782;SDS011;7483;50.498;12.138;2023-03-01T09:16:53;0.20;;;0.20;;
14782;SDS011;7483;50.498;12.138;2023-03-01T09:19:21;0.10;;;0.10;;
14782;SDS011;7483;50.498;12.138;2023-03-01T09:21:52;0.20;;;0.20;;
14782;SDS011;7483;50.498;12.138;2023-03-01T09:24:22;0.10;;;0.10;;
14782;SDS011;7483;50.498;12.138;2023-03-01T09:26:52;0.20;;;0.20;;
14782;SDS011;7483;50.498;12.138;2023-03-01T09:29:22;0.10;;;0.10;;
14782;SDS011;7483;50.498;12.138;2023-03-01T09:31:50;0.10;;;0.10;;
14782;SDS011;7483;50.498;12.138;2023-03-01T09:34:22;0.17;;;0.17;;
14782;SDS011;7483;50.498;12.138;2023-03-01T09:36:50;0.10;;;0.10;;
14782;SDS011;7483;50.498;12.138;2023-03-01T09:39:18;0.10;;;0.10;;
14782;SDS011;7483;50.498;12.138;2023-03-01T09:41:49;0.10;;;0.10;;
14782;SDS011;7483;50.498;12.138;2023-03-01T09:44:29;0.20;;;0.20;;
14782;SDS011;7483;50.498;12.138;2023-03-01T09:47:08;0.15;;;0.15;;
14782;SDS011;7483;50.498;12.138;2023-03-01T09:49:42;0.15;;;0.15;;
14782;SDS011;7483;50.498;12.138;2023-03-01T09:52:21;0.10;;;0.10;;
14782;SDS011;7483;50.498;12.138;2023-03-01T09:55:00;0.10;;;0.10;;
14782;SDS011;7483;50.498;12.138;2023-03-01T09:57:36;0.13;;;0.13;;
14782;SDS011;7483;50.498;12.138;2023-03-01T10:00:18;0.10;;;0.10;;
14782;SDS011;7483;50.498;12.138;2023-03-01T10:03:01;0.10;;;0.10;;
14782;SDS011;7483;50.498;12.138;2023-03-01T10:05:44;0.10;;;0.10;;
14782;SDS011;7483;50.498;12.138;2023-03-01T10:08:26;0.10;;;0.10;;
14782;SDS011;7483;50.498;12.138;2023-03-01T10:11:03;0.10;;;0.10;;
14782;SDS011;7483;50.498;12.138;2023-03-01T10:13:48;0.20;;;0.20;;
14782;SDS011;7483;50.498;12.138;2023-03-01T10:16:26;0.10;;;0.10;;
14782;SDS011;7483;50.498;12.138;2023-03-01T10:19:09;0.10;;;0.10;;
14782;SDS011;7483;50.498;12.138;2023-03-01T10:21:44;0.10;;;0.10;;
14782;SDS011;7483;50.498;12.138;2023-03-01T10:24:15;0.10;;;0.10;;
14782;SDS011;7483;50.498;12.138;2023-03-01T10:26:48;0.10;;;0.10;;
14782;SDS011;7483;50.498;12.138;2023-03-01T10:29:23;0.10;;;0.10;;
14782;SDS011;7483;50.498;12.138;2023-03-01T10:31:58;0.10;;;0.10;;
14782;SDS011;7483;50.498;12.138;2023-03-01T10:34:29;0.10;;;0.10;;
14782;SDS011;7483;50.498;12.138;2023-03-01T10:37:01;0.10;;;0.10;;
14782;SDS011;7483;50.498;12.138;2023-03-01T10:39:37;0.10;;;0.10;;
14782;SDS011;7483;50.498;12.138;2023-03-01T10:42:28;0.10;;;0.10;;
14782;SDS011;7483;50.498;12.138;2023-03-01T10:45:00;0.10;;;0.10;;
14782;SDS011;7483;50.498;12.138;2023-03-01T10:47:44;0.10;;;0.10;;
14782;SDS011;7483;50.498;12.138;2023-03-01T10:50:20;0.10;;;0.10;;
14782;SDS011;7483;50.498;12.138;2023-03-01T10:52:56;0.10;;;0.10;;
14782;SDS011;7483;50.498;12.138;2023-03-01T10:55:28;0.10;;;0.10;;
14782;SDS011;7483;50.498;12.138;2023-03-01T10:58:09;0.10;;;0.10;;
14782;SDS011;7483;50.498;12.138;2023-03-01T11:00:47;0.10;;;0.10;;
14782;SDS011;7483;50.498;12.138;2023-03-01T11:03:20;0.10;;;0.10;;
14782;SDS011;7483;50.498;12.138;2023-03-01T11:05:54;0.10;;;0.10;;
14782;SDS011;7483;50.498;12.138;2023-03-01T11:08:30;0.10;;;0.10;;
14782;SDS011;7483;50.498;12.138;2023-03-01T11:11:13;0.10;;;0.10;;
14782;SDS011;7483;50.498;12.138;2023-03-01T11:13:53;0.20;;;0.20;;
14782;SDS011;7483;50.498;12.138;2023-03-01T11:16:26;0.10;;;0.10;;
14782;SDS011;7483;50.498;12.138;2023-03-01T11:19:19;0.10;;;0.10;;
14782;SDS011;7483;50.498;12.138;2023-03-01T11:21:55;0.10;;;0.10;;
14782;SDS011;7483;50.498;12.138;2023-03-01T11:24:31;0.10;;;0.10;;
14782;SDS011;7483;50.498;12.138;2023-03-01T11:27:12;0.10;;;0.10;;
14782;SDS011;7483;50.498;12.138;2023-03-01T11:29:48;0.10;;;0.10;;
14782;SDS011;7483;50.498;12.138;2023-03-01T11:32:25;0.10;;;0.10;;
14782;SDS011;7483;50.498;12.138;2023-03-01T11:34:59;0.10;;;0.10;;
14782;SDS011;7483;50.498;12.138;2023-03-01T11:37:35;0.10;;;0.10;;
14782;SDS011;7483;50.498;12.138;2023-03-01T11:40:11;0.10;;;0.10;;
14782;SDS011;7483;50.498;12.138;2023-03-01T11:42:56;0.13;;;0.13;;
14782;SDS011;7483;50.498;12.138;2023-03-01T11:45:37;0.00;;;0.00;;
14782;SDS011;7483;50.498;12.138;2023-03-01T11:48:24;0.10;;;0.10;;
14782;SDS011;7483;50.498;12.138;2023-03-01T11:51:17;0.10;;;0.10;;
14782;SDS011;7483;50.498;12.138;2023-03-01T11:54:02;0.10;;;0.10;;
14782;SDS011;7483;50.498;12.138;2023-03-01T11:56:45;0.10;;;0.10;;
14782;SDS011;7483;50.498;12.138;2023-03-01T11:59:35;0.10;;;0.10;;
14782;SDS011;7483;50.498;12.138;2023-03-01T12:02:24;0.10;;;0.10;;
14782;SDS011;7483;50.498;12.138;2023-03-01T12:05:38;0.10;;;0.10;;
14782;SDS011;7483;50.498;12.138;2023-03-01T12:08:45;0.10;;;0.10;;
14782;SDS011;7483;50.498;12.138;2023-03-01T12:11:22;0.10;;;0.10;;
14782;SDS011;7483;50.498;12.138;2023-03-01T12:14:17;0.10;;;0.10;;
14782;SDS011;7483;50.498;12.138;2023-03-01T12:17:14;0.10;;;0.10;;
14782;SDS011;7483;50.498;12.138;2023-03-01T12:20:08;0.10;;;0.10;;
14782;SDS011;7483;50.498;12.138;2023-03-01T12:22:48;0.10;;;0.10;;
14782;SDS011;7483;50.498;12.138;2023-03-01T12:25:46;0.10;;;0.10;;
14782;SDS011;7483;50.498;12.138;2023-03-01T12:28:39;0.10;;;0.10;;
14782;SDS011;7483;50.498;12.138;2023-03-01T12:31:32;0.10;;;0.10;;
14782;SDS011;7483;50.498;12.138;2023-03-01T12:34:45;0.10;;;0.10;;
14782;SDS011;7483;50.498;12.138;2023-03-01T12:37:47;0.10;;;0.10;;
14782;SDS011;7483;50.498;12.138;2023-03-01T12:40:31;0.10;;;0.10;;
14782;SDS011;7483;50.498;12.138;2023-03-01T12:43:27;0.10;;;0.10;;
14782;SDS011;7483;50.498;12.138;2023-03-01T12:46:14;0.10;;;0.10;;
14782;SDS011;7483;50.498;12.138;2023-03-01T12:49:01;0.10;;;0.10;;
14782;SDS011;7483;50.498;12.138;2023-03-01T12:51:37;0.10;;;0.10;;
14782;SDS011;7483;50.498;12.138;2023-03-01T12:54:11;0.10;;;0.10;;
14782;SDS011;7483;50.498;12.138;2023-03-01T12:56:43;0.10;;;0.10;;
14782;SDS011;7483;50.498;12.138;2023-03-01T12:59:21;0.10;;;0.10;;
14782;SDS011;7483;50.498;12.138;2023-03-01T13:02:02;0.10;;;0.10;;
14782;SDS011;7483;50.498;12.138;2023-03-01T13:04:50;0.10;;;0.10;;
14782;SDS011;7483;50.498;12.138;2023-03-01T13:07:35;0.10;;;0.10;;
14782;SDS011;7483;50.498;12.138;2023-03-01T13:10:20;0.10;;;0.10;;
14782;SDS011;7483;50.498;12.138;2023-03-01T13:13:01;0.10;;;0.10;;
14782;SDS011;7483;50.498;12.138;2023-03-01T13:15:41;0.10;;;0.10;;
14782;SDS011;7483;50.498;12.138;2023-03-01T13:20:59;0.10;;;0.10;;
14782;SDS011;7483;50.498;12.138;2023-03-01T13:23:33;0.10;;;0.10;;
14782;SDS011;7483;50.498;12.138;2023-03-01T13:26:10;0.10;;;0.10;;
14782;SDS011;7483;50.498;12.138;2023-03-01T13:28:47;0.10;;;0.10;;
14782;SDS011;7483;50.498;12.138;2023-03-01T13:34:39;0.10;;;0.10;;
14782;SDS011;7483;50.498;12.138;2023-03-01T13:37:21;0.10;;;0.10;;
14782;SDS011;7483;50.498;12.138;2023-03-01T13:39:59;0.10;;;0.10;;
14782;SDS011;7483;50.498;12.138;2023-03-01T13:42:37;0.10;;;0.10;;
14782;SDS011;7483;50.498;12.138;2023-03-01T13:45:26;0.10;;;0.10;;
14782;SDS011;7483;50.498;12.138;2023-03-01T13:48:10;0.00;;;0.00;;
14782;SDS011;7483;50.498;12.138;2023-03-01T13:50:48;0.10;;;0.10;;
14782;SDS011;7483;50.498;12.138;2023-03-01T13:53:23;0.10;;;0.10;;
14782;SDS011;7483;50.498;12.138;2023-03-01T13:55:57;0.10;;;0.10;;
14782;SDS011;7483;50.498;12.138;2023-03-01T13:58:30;0.10;;;0.10;;
14782;SDS011;7483;50.498;12.138;2023-03-01T14:01:18;0.10;;;0.10;;
14782;SDS011;7483;50.498;12.138;2023-03-01T14:03:54;0.10;;;0.10;;
14782;SDS011;7483;50.498;12.138;2023-03-01T14:06:23;0.10;;;0.10;;
14782;SDS011;7483;50.498;12.138;2023-03-01T14:09:00;0.10;;;0.10;;
14782;SDS011;7483;50.498;12.138;2023-03-01T14:11:51;0.10;;;0.10;;
14782;SDS011;7483;50.498;12.138;2023-03-01T14:14:45;0.10;;;0.10;;
14782;SDS011;7483;50.498;12.138;2023-03-01T14:17:24;0.10;;;0.10;;
14782;SDS011;7483;50.498;12.138;2023-03-01T14:20:21;0.10;;;0.10;;
14782;SDS011;7483;50.498;12.138;2023-03-01T14:22:52;0.10;;;0.10;;
14782;SDS011;7483;50.498;12.138;2023-03-01T14:25:24;0.10;;;0.10;;
14782;SDS011;7483;50.498;12.138;2023-03-01T14:27:57;0.10;;;0.10;;
14782;SDS011;7483;50.498;12.138;2023-03-01T14:30:41;0.10;;;0.10;;
14782;SDS011;7483;50.498;12.138;2023-03-01T14:33:18;0.10;;;0.10;;
14782;SDS011;7483;50.498;12.138;2023-03-01T14:35:58;0.10;;;0.10;;
14782;SDS011;7483;50.498;12.138;2023-03-01T14:38:29;0.10;;;0.10;;
14782;SDS011;7483;50.498;12.138;2023-03-01T14:41:02;0.10;;;0.10;;
14782;SDS011;7483;50.498;12.138;2023-03-01T14:43:34;0.10;;;0.10;;
14782;SDS011;7483;50.498;12.138;2023-03-01T14:46:04;0.10;;;0.10;;
14782;SDS011;7483;50.498;12.138;2023-03-01T14:48:32;0.10;;;0.10;;
14782;SDS011;7483;50.498;12.138;2023-03-01T14:51:02;0.10;;;0.10;;
14782;SDS011;7483;50.498;12.138;2023-03-01T14:53:32;0.10;;;0.10;;
14782;SDS011;7483;50.498;12.138;2023-03-01T14:56:16;0.10;;;0.10;;
14782;SDS011;7483;50.498;12.138;2023-03-01T14:58:45;0.10;;;0.10;;
14782;SDS011;7483;50.498;12.138;2023-03-01T15:01:14;0.10;;;0.10;;
14782;SDS011;7483;50.498;12.138;2023-03-01T15:03:45;0.10;;;0.10;;
14782;SDS011;7483;50.498;12.138;2023-03-01T15:06:18;0.10;;;0.10;;
14782;SDS011;7483;50.498;12.138;2023-03-01T15:08:50;0.10;;;0.10;;
14782;SDS011;7483;50.498;12.138;2023-03-01T15:11:21;0.10;;;0.10;;
14782;SDS011;7483;50.498;12.138;2023-03-01T15:13:54;0.10;;;0.10;;
14782;SDS011;7483;50.498;12.138;2023-03-01T15:16:23;0.10;;;0.10;;
14782;SDS011;7483;50.498;12.138;2023-03-01T15:18:55;0.10;;;0.10;;
14782;SDS011;7483;50.498;12.138;2023-03-01T15:21:29;0.10;;;0.10;;
14782;SDS011;7483;50.498;12.138;2023-03-01T15:24:01;0.10;;;0.10;;
14782;SDS011;7483;50.498;12.138;2023-03-01T15:26:39;0.10;;;0.10;;
14782;SDS011;7483;50.498;12.138;2023-03-01T15:29:11;0.10;;;0.10;;
14782;SDS011;7483;50.498;12.138;2023-03-01T15:31:53;0.10;;;0.10;;
14782;SDS011;7483;50.498;12.138;2023-03-01T15:34:24;0.10;;;0.10;;